Time;durP1;ratioP1;P1;durP2;ratioP2;P2;SDS_P1;SDS_P2;PMS_P1;PMS_P2;Temp;Humidity;BMP_temperature;BMP_pressure;BME280_temperature;BME280_humidity;BME280_pressure;Samples;Min_cycle;Max_cycle;Signal;HPM_P1;HPM_P2
2022/03/24 00:02:47;;;;;;;225.30;89.57;;;;;;;;;;6221287;28;20026;-66
2022/03/24 00:05:47;;;;;;;171.15;69.25;;;;;;;;;;6216989;28;20072;-66
2022/03/24 00:08:47;;;;;;;156.38;62.45;;;;;;;;;;6218665;28;20026;-66
2022/03/24 00:11:49;;;;;;;128.50;49.47;;;;;;;;;;6218019;28;20054;-66
2022/03/24 00:14:49;;;;;;;132.23;54.22;;;;;;;;;;6216965;28;20030;-66
2022/03/24 00:17:49;;;;;;;138.60;54.50;;;;;;;;;;6217171;28;20064;-66
2022/03/24 00:20:49;;;;;;;143.23;52.47;;;;;;;;;;6220422;28;20034;-66
2022/03/24 00:23:50;;;;;;;132.05;51.85;;;;;;;;;;6216520;28;20052;-67
2022/03/24 00:26:50;;;;;;;123.13;50.10;;;;;;;;;;6218373;28;20085;-66
2022/03/24 00:29:50;;;;;;;111.45;47.00;;;;;;;;;;6220646;28;20056;-66
2022/03/24 00:32:50;;;;;;;154.85;54.17;;;;;;;;;;6217278;28;20021;-66
2022/03/24 00:35:51;;;;;;;143.70;60.50;;;;;;;;;;6216938;28;20105;-66
2022/03/24 00:38:55;;;;;;;223.82;88.32;;;;;;;;;;6216168;28;20052;-66
2022/03/24 00:41:55;;;;;;;194.43;74.43;;;;;;;;;;6219495;28;20022;-66
2022/03/24 00:44:55;;;;;;;167.80;70.22;;;;;;;;;;6219965;28;20028;-66
2022/03/24 00:47:55;;;;;;;180.35;65.28;;;;;;;;;;6218160;28;20386;-66
2022/03/24 00:50:56;;;;;;;191.10;74.00;;;;;;;;;;6220918;28;20028;-65
2022/03/24 00:53:56;;;;;;;249.48;98.47;;;;;;;;;;6221493;28;20327;-64
2022/03/24 00:56:57;;;;;;;192.50;79.40;;;;;;;;;;6220968;28;20057;-64
2022/03/24 00:59:57;;;;;;;179.63;77.35;;;;;;;;;;6222114;28;20037;-65
2022/03/24 01:02:58;;;;;;;202.10;84.68;;;;;;;;;;6221223;28;20065;-65
2022/03/24 01:05:58;;;;;;;168.23;67.63;;;;;;;;;;6215365;28;20028;-65
2022/03/24 01:08:58;;;;;;;212.65;82.50;;;;;;;;;;6203096;28;20018;-65
2022/03/24 01:11:59;;;;;;;185.40;73.68;;;;;;;;;;6200672;28;20021;-65
2022/03/24 01:14:59;;;;;;;230.50;91.82;;;;;;;;;;6220926;28;20029;-65
2022/03/24 01:18:00;;;;;;;190.82;78.88;;;;;;;;;;6231929;28;20037;-65
2022/03/24 01:21:03;;;;;;;213.27;81.03;;;;;;;;;;6217249;28;20029;-64
2022/03/24 01:24:03;;;;;;;168.40;66.97;;;;;;;;;;6218117;28;20695;-65
2022/03/24 01:27:07;;;;;;;134.77;54.40;;;;;;;;;;6227696;28;20035;-64
2022/03/24 01:30:09;;;;;;;105.10;45.03;;;;;;;;;;6238617;28;20028;-64
2022/03/24 01:33:09;;;;;;;131.73;48.30;;;;;;;;;;6242544;28;20064;-64
2022/03/24 01:36:10;;;;;;;117.03;42.70;;;;;;;;;;6242446;28;20025;-64
2022/03/24 01:39:10;;;;;;;116.32;46.55;;;;;;;;;;6242389;28;20104;-64
2022/03/24 01:42:11;;;;;;;102.45;40.75;;;;;;;;;;6232182;28;20068;-64
2022/03/24 01:45:11;;;;;;;142.65;58.00;;;;;;;;;;6204582;28;20073;-64
2022/03/24 01:48:14;;;;;;;135.95;53.83;;;;;;;;;;6236665;28;20025;-64
2022/03/24 01:51:14;;;;;;;;;;;;;;;;;;6231803;28;20026;-64
2022/03/24 01:54:14;;;;;;;124.13;49.92;;;;;;;;;;6237075;28;20433;-64
2022/03/24 01:57:15;;;;;;;138.50;54.67;;;;;;;;;;6250472;28;20029;-64
2022/03/24 02:00:15;;;;;;;118.25;49.72;;;;;;;;;;6247355;28;20022;-64
2022/03/24 02:03:16;;;;;;;130.15;50.30;;;;;;;;;;6247039;28;20029;-64
2022/03/24 02:06:16;;;;;;;124.65;51.63;;;;;;;;;;6245685;28;20033;-64
2022/03/24 02:09:16;;;;;;;112.07;48.50;;;;;;;;;;6244543;28;20033;-64
2022/03/24 02:12:17;;;;;;;121.25;44.92;;;;;;;;;;6247102;28;20484;-64
2022/03/24 02:15:18;;;;;;;126.75;52.38;;;;;;;;;;6246111;28;20515;-64
2022/03/24 02:18:19;;;;;;;138.95;59.20;;;;;;;;;;6246634;28;20552;-63
2022/03/24 02:21:19;;;;;;;136.05;54.55;;;;;;;;;;6246298;28;20025;-63
2022/03/24 02:24:20;;;;;;;109.47;46.72;;;;;;;;;;6245893;28;20029;-64
2022/03/24 02:27:22;;;;;;;135.43;49.80;;;;;;;;;;6240350;28;20020;-63
2022/03/24 02:30:24;;;;;;;132.15;56.13;;;;;;;;;;6236874;28;20020;-64
2022/03/24 02:33:24;;;;;;;155.80;57.17;;;;;;;;;;6246059;28;20086;-63
2022/03/24 02:36:24;;;;;;;145.90;58.50;;;;;;;;;;6247103;28;20017;-63
2022/03/24 02:39:24;;;;;;;153.32;54.85;;;;;;;;;;6241812;28;20014;-63
2022/03/24 02:42:26;;;;;;;120.32;50.40;;;;;;;;;;6242739;28;20021;-63
2022/03/24 02:45:26;;;;;;;108.37;43.67;;;;;;;;;;6240419;28;20030;-63
2022/03/24 02:48:26;;;;;;;124.20;51.00;;;;;;;;;;6222325;28;20465;-63
2022/03/24 02:51:26;;;;;;;127.72;50.13;;;;;;;;;;6227938;28;20057;-63
2022/03/24 02:54:28;;;;;;;137.40;52.17;;;;;;;;;;6235909;28;20568;-64
2022/03/24 02:57:28;;;;;;;124.65;49.60;;;;;;;;;;6252107;28;20021;-63
2022/03/24 03:00:28;;;;;;;115.80;46.92;;;;;;;;;;6230759;28;20036;-64
2022/03/24 03:03:29;;;;;;;114.07;43.90;;;;;;;;;;6229802;28;20572;-63
2022/03/24 03:06:29;;;;;;;124.03;49.00;;;;;;;;;;6227455;28;20455;-65
2022/03/24 03:09:30;;;;;;;112.45;44.55;;;;;;;;;;6233067;28;20425;-63
2022/03/24 03:12:31;;;;;;;99.40;39.67;;;;;;;;;;6243492;28;20036;-63
2022/03/24 03:15:31;;;;;;;118.60;50.22;;;;;;;;;;6245269;28;20061;-63
2022/03/24 03:18:32;;;;;;;106.20;49.10;;;;;;;;;;6245523;28;20354;-63
2022/03/24 03:21:32;;;;;;;124.05;51.55;;;;;;;;;;6245267;28;20029;-63
2022/03/24 03:24:33;;;;;;;118.95;47.97;;;;;;;;;;6245088;28;20030;-63
2022/03/24 03:27:33;;;;;;;101.75;45.75;;;;;;;;;;6244261;28;20036;-63
2022/03/24 03:30:34;;;;;;;142.82;52.78;;;;;;;;;;6243255;28;20021;-63
2022/03/24 03:33:35;;;;;;;119.22;51.15;;;;;;;;;;6245206;28;20032;-63
2022/03/24 03:36:37;;;;;;;111.60;47.97;;;;;;;;;;6244949;28;20049;-63
2022/03/24 03:39:38;;;;;;;116.00;44.85;;;;;;;;;;6244564;28;20044;-63
2022/03/24 03:42:38;;;;;;;130.05;49.38;;;;;;;;;;6241364;28;20024;-63
2022/03/24 03:45:38;;;;;;;118.53;46.45;;;;;;;;;;6244689;28;20477;-63
2022/03/24 03:48:39;;;;;;;126.35;50.58;;;;;;;;;;6244918;28;20040;-63
2022/03/24 03:51:39;;;;;;;105.57;45.47;;;;;;;;;;6226392;28;20053;-63
2022/03/24 03:54:39;;;;;;;112.45;43.40;;;;;;;;;;6244331;28;20409;-63
2022/03/24 03:57:40;;;;;;;115.60;44.65;;;;;;;;;;6261329;28;20110;-64
2022/03/24 04:00:53;;;;;;;113.85;46.70;;;;;;;;;;6261511;28;20112;-64
2022/03/24 04:03:53;;;;;;;114.78;49.22;;;;;;;;;;6244160;28;20037;-64
2022/03/24 04:06:53;;;;;;;115.43;47.97;;;;;;;;;;6242967;28;20032;-64
2022/03/24 04:09:54;;;;;;;116.70;47.33;;;;;;;;;;6243336;28;20462;-64
2022/03/24 04:12:55;;;;;;;129.80;52.45;;;;;;;;;;6244200;28;20405;-64
2022/03/24 04:15:55;;;;;;;133.27;51.77;;;;;;;;;;6243517;28;20535;-64
2022/03/24 04:18:56;;;;;;;127.38;50.15;;;;;;;;;;6243951;28;20090;-64
2022/03/24 04:21:57;;;;;;;128.48;51.58;;;;;;;;;;6243406;28;20517;-64
2022/03/24 04:24:57;;;;;;;105.90;47.92;;;;;;;;;;6243625;28;20087;-64
2022/03/24 04:27:57;;;;;;;106.28;42.08;;;;;;;;;;6233644;28;20481;-64
2022/03/24 04:30:57;;;;;;;136.07;54.95;;;;;;;;;;6241368;28;20022;-64
2022/03/24 04:33:58;;;;;;;161.15;66.78;;;;;;;;;;6242917;28;20095;-64
2022/03/24 04:36:58;;;;;;;133.90;60.67;;;;;;;;;;6240520;28;20040;-64
2022/03/24 04:39:58;;;;;;;157.77;67.72;;;;;;;;;;6242436;28;20032;-64
2022/03/24 04:42:59;;;;;;;163.30;68.82;;;;;;;;;;6239925;28;20043;-64
2022/03/24 04:45:59;;;;;;;161.18;65.03;;;;;;;;;;6229573;28;20038;-64
2022/03/24 04:49:02;;;;;;;139.35;54.00;;;;;;;;;;6229879;28;20018;-64
2022/03/24 04:52:03;;;;;;;137.45;56.08;;;;;;;;;;6242677;28;20051;-64
2022/03/24 04:55:04;;;;;;;118.33;48.67;;;;;;;;;;6225264;28;20049;-64
2022/03/24 04:58:04;;;;;;;131.05;53.38;;;;;;;;;;6263291;28;20035;-64
2022/03/24 05:01:05;;;;;;;115.97;50.72;;;;;;;;;;6254133;28;20648;-64
2022/03/24 05:04:05;;;;;;;117.22;51.25;;;;;;;;;;6242699;28;20112;-64
2022/03/24 05:07:05;;;;;;;114.13;49.00;;;;;;;;;;6243395;28;20017;-64
2022/03/24 05:10:06;;;;;;;139.45;60.50;;;;;;;;;;6238758;28;20018;-64
2022/03/24 05:13:06;;;;;;;167.85;75.90;;;;;;;;;;6220193;28;20032;-64
2022/03/24 05:16:06;;;;;;;149.65;63.80;;;;;;;;;;6233771;28;20483;-64
2022/03/24 05:19:07;;;;;;;168.15;71.50;;;;;;;;;;6221733;28;20049;-65
2022/03/24 05:22:07;;;;;;;177.25;78.35;;;;;;;;;;6236223;28;20022;-64
2022/03/24 05:25:08;;;;;;;186.73;80.95;;;;;;;;;;6221520;28;20385;-64
2022/03/24 05:28:08;;;;;;;174.27;74.10;;;;;;;;;;6237166;28;20064;-64
2022/03/24 05:31:08;;;;;;;206.82;82.55;;;;;;;;;;6243697;28;20018;-64
2022/03/24 05:34:08;;;;;;;193.03;82.10;;;;;;;;;;6243500;28;20021;-64
2022/03/24 05:37:09;;;;;;;197.98;83.88;;;;;;;;;;6212750;28;20609;-64
2022/03/24 05:40:10;;;;;;;191.38;84.28;;;;;;;;;;6222617;28;20583;-64
2022/03/24 05:43:10;;;;;;;204.32;83.72;;;;;;;;;;6225170;28;20021;-64
2022/03/24 05:46:10;;;;;;;190.80;82.80;;;;;;;;;;6221216;28;20029;-64
2022/03/24 05:49:14;;;;;;;188.77;88.73;;;;;;;;;;6228386;28;20103;-64
2022/03/24 05:52:14;;;;;;;189.65;82.75;;;;;;;;;;6242948;28;20264;-64
2022/03/24 05:55:15;;;;;;;183.32;77.65;;;;;;;;;;6244699;28;20045;-64
2022/03/24 05:58:17;;;;;;;175.85;80.47;;;;;;;;;;6269159;28;20112;-64
2022/03/24 06:01:17;;;;;;;158.70;72.82;;;;;;;;;;6259688;28;20021;-64
2022/03/24 06:04:18;;;;;;;153.23;71.20;;;;;;;;;;6240444;28;20032;-65
2022/03/24 06:07:19;;;;;;;133.63;64.20;;;;;;;;;;6204697;28;20381;-65
2022/03/24 06:10:19;;;;;;;147.98;72.53;;;;;;;;;;6242734;28;20048;-65
2022/03/24 06:13:20;;;;;;;157.80;76.78;;;;;;;;;;6231978;28;20112;-65
2022/03/24 06:16:21;;;;;;;130.52;65.88;;;;;;;;;;6231468;28;20033;-66
2022/03/24 06:19:22;;;;;;;131.25;67.57;;;;;;;;;;6239616;28;20065;-65
2022/03/24 06:22:22;;;;;;;168.75;86.13;;;;;;;;;;6241382;28;20041;-65
2022/03/24 06:25:22;;;;;;;152.82;78.22;;;;;;;;;;6236372;28;20022;-65
2022/03/24 06:28:23;;;;;;;144.00;73.13;;;;;;;;;;6241210;28;20029;-65
2022/03/24 06:31:23;;;;;;;124.47;64.88;;;;;;;;;;6241009;28;20025;-65
2022/03/24 06:34:23;;;;;;;127.65;65.07;;;;;;;;;;6244790;28;20544;-65
2022/03/24 06:37:24;;;;;;;131.43;63.03;;;;;;;;;;6239276;28;20354;-65
2022/03/24 06:40:24;;;;;;;93.35;45.65;;;;;;;;;;6226825;28;20045;-65
2022/03/24 06:43:25;;;;;;;82.55;42.85;;;;;;;;;;6226281;28;20026;-65
2022/03/24 06:46:26;;;;;;;71.47;38.17;;;;;;;;;;6231267;28;20436;-65
2022/03/24 06:49:26;;;;;;;76.30;40.33;;;;;;;;;;6241682;28;20563;-66
2022/03/24 06:52:26;;;;;;;73.20;39.53;;;;;;;;;;6233322;28;20025;-66
2022/03/24 06:55:27;;;;;;;73.73;42.30;;;;;;;;;;6225461;28;20304;-66
2022/03/24 06:58:27;;;;;;;73.88;39.13;;;;;;;;;;6235494;28;20277;-66
2022/03/24 07:01:27;;;;;;;78.47;39.30;;;;;;;;;;6241954;28;20230;-66
2022/03/24 07:04:27;;;;;;;74.87;39.37;;;;;;;;;;6240214;28;20025;-66
2022/03/24 07:07:28;;;;;;;62.63;35.03;;;;;;;;;;6236114;28;20284;-66
2022/03/24 07:10:28;;;;;;;60.65;30.13;;;;;;;;;;6234466;28;20431;-67
2022/03/24 07:13:29;;;;;;;41.40;24.77;;;;;;;;;;6244523;28;20442;-67
2022/03/24 07:16:29;;;;;;;43.58;25.23;;;;;;;;;;6239278;28;20064;-67
2022/03/24 07:19:29;;;;;;;42.72;25.70;;;;;;;;;;6243051;28;20105;-67
2022/03/24 07:22:36;;;;;;;40.05;24.33;;;;;;;;;;6243854;28;20112;-67
2022/03/24 07:25:36;;;;;;;44.72;26.95;;;;;;;;;;6234465;28;20357;-67
2022/03/24 07:28:37;;;;;;;40.47;23.63;;;;;;;;;;6240837;28;20033;-66
2022/03/24 07:31:37;;;;;;;41.37;24.70;;;;;;;;;;6240477;28;20040;-66
2022/03/24 07:34:38;;;;;;;45.63;27.37;;;;;;;;;;6244875;28;20029;-67
2022/03/24 07:37:38;;;;;;;49.60;26.57;;;;;;;;;;6241896;28;20366;-67
2022/03/24 07:40:38;;;;;;;43.17;25.33;;;;;;;;;;6226115;28;20394;-67
2022/03/24 07:43:38;;;;;;;47.77;26.93;;;;;;;;;;6232022;28;20096;-67
2022/03/24 07:46:39;;;;;;;42.50;24.27;;;;;;;;;;6236317;28;20041;-67
2022/03/24 07:49:39;;;;;;;38.87;24.17;;;;;;;;;;6221797;28;20397;-67
2022/03/24 07:52:40;;;;;;;39.97;24.37;;;;;;;;;;6225980;28;20022;-67
2022/03/24 07:55:44;;;;;;;35.53;23.30;;;;;;;;;;6242060;28;20054;-67
2022/03/24 07:58:45;;;;;;;44.15;23.88;;;;;;;;;;6233949;28;20448;-66
2022/03/24 08:01:45;;;;;;;44.90;24.63;;;;;;;;;;6234521;28;20025;-66
2022/03/24 08:04:45;;;;;;;39.70;25.80;;;;;;;;;;6234831;28;20036;-67
2022/03/24 08:07:45;;;;;;;38.53;24.47;;;;;;;;;;6243691;28;20014;-67
2022/03/24 08:10:47;;;;;;;37.47;23.93;;;;;;;;;;6243818;28;20477;-67
2022/03/24 08:13:52;;;;;;;40.35;25.33;;;;;;;;;;6215784;28;20346;-67
2022/03/24 08:16:52;;;;;;;49.97;26.90;;;;;;;;;;6219958;28;20398;-67
2022/03/24 08:19:52;;;;;;;41.90;27.17;;;;;;;;;;6218156;28;20029;-67
2022/03/24 08:22:52;;;;;;;41.27;25.07;;;;;;;;;;6219514;28;20072;-67
2022/03/24 08:25:53;;;;;;;43.37;26.10;;;;;;;;;;6229574;28;20025;-67
2022/03/24 08:28:56;;;;;;;44.90;24.97;;;;;;;;;;6231600;28;20058;-67
2022/03/24 08:31:57;;;;;;;44.65;25.98;;;;;;;;;;6228433;28;20460;-66
2022/03/24 08:34:57;;;;;;;45.20;25.77;;;;;;;;;;6224720;28;20025;-66
2022/03/24 08:37:59;;;;;;;44.03;25.87;;;;;;;;;;6223979;28;20238;-66
2022/03/24 08:40:59;;;;;;;39.90;23.85;;;;;;;;;;6224570;28;20409;-66
2022/03/24 08:43:59;;;;;;;35.87;21.77;;;;;;;;;;6235408;28;20041;-66
2022/03/24 08:47:00;;;;;;;36.23;23.53;;;;;;;;;;6233895;28;20544;-66
2022/03/24 08:50:00;;;;;;;35.43;20.07;;;;;;;;;;6237610;28;20036;-66
2022/03/24 08:53:03;;;;;;;33.07;19.10;;;;;;;;;;6229844;28;20032;-66
2022/03/24 08:56:03;;;;;;;29.83;18.42;;;;;;;;;;6222804;28;20061;-67
2022/03/24 08:59:04;;;;;;;37.03;22.30;;;;;;;;;;6236726;28;20053;-67
2022/03/24 09:02:04;;;;;;;38.53;20.80;;;;;;;;;;6233641;28;20048;-67
2022/03/24 09:05:05;;;;;;;36.80;21.27;;;;;;;;;;6233898;28;20275;-67
2022/03/24 09:08:06;;;;;;;32.90;19.63;;;;;;;;;;6238379;28;20083;-67
2022/03/24 09:11:06;;;;;;;35.10;19.57;;;;;;;;;;6226857;28;20083;-67
2022/03/24 09:14:07;;;;;;;38.33;20.70;;;;;;;;;;6237205;28;20369;-67
2022/03/24 09:17:08;;;;;;;31.77;19.48;;;;;;;;;;6225103;28;20678;-67
2022/03/24 09:20:09;;;;;;;33.83;17.53;;;;;;;;;;6215617;28;20038;-67
2022/03/24 09:23:10;;;;;;;35.95;19.17;;;;;;;;;;6218830;28;20030;-67
2022/03/24 09:26:12;;;;;;;34.80;19.17;;;;;;;;;;6216161;28;20032;-67
2022/03/24 09:29:13;;;;;;;35.35;18.90;;;;;;;;;;6218913;28;20022;-67
2022/03/24 09:32:13;;;;;;;33.45;20.13;;;;;;;;;;6221210;28;20032;-67
2022/03/24 09:35:14;;;;;;;36.33;18.10;;;;;;;;;;6216551;28;20026;-67
2022/03/24 09:38:14;;;;;;;32.83;18.93;;;;;;;;;;6217441;28;20654;-67
2022/03/24 09:41:16;;;;;;;33.40;17.67;;;;;;;;;;6219879;28;20025;-67
2022/03/24 09:44:17;;;;;;;37.00;18.75;;;;;;;;;;6218793;28;20497;-67
2022/03/24 09:47:25;;;;;;;38.40;20.73;;;;;;;;;;6215731;28;20072;-67
2022/03/24 09:50:35;;;;;;;33.70;17.50;;;;;;;;;;6233720;28;20132;-68
2022/03/24 09:53:39;;;;;;;28.85;17.30;;;;;;;;;;6220027;28;20392;-68
2022/03/24 09:56:39;;;;;;;26.33;13.90;;;;;;;;;;6196944;28;1100003;-68
2022/03/24 09:59:40;;;;;;;34.67;16.30;;;;;;;;;;6234625;28;20042;-67
2022/03/24 10:02:40;;;;;;;39.63;17.90;;;;;;;;;;6233525;28;20470;-68
2022/03/24 10:05:53;;;;;;;26.70;14.10;;;;;;;;;;6244723;28;20025;-67
2022/03/24 10:08:54;;;;;;;29.40;12.50;;;;;;;;;;6237830;28;20416;-67
2022/03/24 10:11:54;;;;;;;24.20;11.83;;;;;;;;;;6241178;28;20013;-67
2022/03/24 10:14:57;;;;;;;27.53;12.90;;;;;;;;;;6242684;28;20017;-67
2022/03/24 10:17:58;;;;;;;26.48;12.20;;;;;;;;;;6239338;28;20030;-67
2022/03/24 10:21:00;;;;;;;23.87;11.17;;;;;;;;;;6244417;28;20029;-68
2022/03/24 10:24:07;;;;;;;23.83;11.40;;;;;;;;;;6241605;28;20115;-68
2022/03/24 10:27:08;;;;;;;23.88;12.23;;;;;;;;;;6239542;28;20017;-68
2022/03/24 10:30:10;;;;;;;30.60;13.40;;;;;;;;;;6239139;28;20021;-68
2022/03/24 10:33:24;;;;;;;15.50;8.57;;;;;;;;;;6239422;28;20075;-68
2022/03/24 10:36:26;;;;;;;23.42;11.40;;;;;;;;;;6239559;28;20022;-68
2022/03/24 10:39:27;;;;;;;23.48;11.10;;;;;;;;;;6235966;28;20151;-68
2022/03/24 10:42:28;;;;;;;15.10;7.77;;;;;;;;;;6237249;28;20067;-68
2022/03/24 10:45:28;;;;;;;15.77;7.93;;;;;;;;;;6240239;28;20052;-68
2022/03/24 10:48:28;;;;;;;18.30;8.40;;;;;;;;;;6243859;28;20022;-68
2022/03/24 10:51:30;;;;;;;16.83;8.90;;;;;;;;;;6241507;28;20024;-68
2022/03/24 10:54:38;;;;;;;16.15;8.73;;;;;;;;;;6236653;28;20102;-67
2022/03/24 10:57:39;;;;;;;13.25;7.28;;;;;;;;;;6238380;28;20094;-68
2022/03/24 11:00:41;;;;;;;15.20;8.40;;;;;;;;;;6241235;28;20481;-68
2022/03/24 11:03:43;;;;;;;16.55;9.07;;;;;;;;;;6234346;28;20444;-68
2022/03/24 11:06:52;;;;;;;17.02;7.80;;;;;;;;;;6239070;28;20030;-68
2022/03/24 11:09:53;;;;;;;16.00;8.27;;;;;;;;;;6233181;28;20080;-68
2022/03/24 11:13:00;;;;;;;18.33;9.60;;;;;;;;;;6234666;28;20025;-68
2022/03/24 11:16:00;;;;;;;19.25;9.18;;;;;;;;;;6232787;28;20022;-68
2022/03/24 11:19:01;;;;;;;14.73;9.87;;;;;;;;;;6227733;28;20075;-68
2022/03/24 11:22:02;;;;;;;13.77;7.68;;;;;;;;;;6232061;28;20022;-68
2022/03/24 11:25:03;;;;;;;15.07;8.87;;;;;;;;;;6241030;28;20060;-68
2022/03/24 11:28:07;;;;;;;18.48;9.00;;;;;;;;;;6244969;28;20535;-68
2022/03/24 11:31:09;;;;;;;18.77;8.13;;;;;;;;;;6231815;28;20025;-68
2022/03/24 11:34:09;;;;;;;17.25;8.98;;;;;;;;;;6244754;28;20035;-68
2022/03/24 11:37:10;;;;;;;11.80;6.83;;;;;;;;;;6244202;28;20397;-68
2022/03/24 11:40:12;;;;;;;14.50;6.10;;;;;;;;;;6243871;28;20025;-68
2022/03/24 11:43:17;;;;;;;15.40;6.60;;;;;;;;;;6221154;28;20053;-68
2022/03/24 11:46:27;;;;;;;12.63;6.07;;;;;;;;;;6243912;28;20025;-68
2022/03/24 11:49:29;;;;;;;12.05;5.55;;;;;;;;;;6244449;28;20014;-68
2022/03/24 11:52:29;;;;;;;;;;;;;;;;;;6238312;28;20017;-68
2022/03/24 11:55:29;;;;;;;16.13;7.97;;;;;;;;;;6235711;28;19979;-68
2022/03/24 11:58:31;;;;;;;11.03;6.03;;;;;;;;;;6226187;28;20026;-68
2022/03/24 12:01:33;;;;;;;13.23;5.35;;;;;;;;;;6229436;28;20029;-68
2022/03/24 12:04:42;;;;;;;17.23;7.38;;;;;;;;;;6232706;28;20033;-68
2022/03/24 12:07:42;;;;;;;11.50;5.28;;;;;;;;;;6237349;28;20013;-68
2022/03/24 12:10:43;;;;;;;12.20;6.03;;;;;;;;;;6239377;28;20112;-68
2022/03/24 12:13:54;;;;;;;9.93;5.00;;;;;;;;;;6239491;28;20025;-68
2022/03/24 12:16:54;;;;;;;12.55;6.07;;;;;;;;;;6237137;28;20035;-68
2022/03/24 12:19:55;;;;;;;13.30;6.33;;;;;;;;;;6226506;28;20457;-68
2022/03/24 12:22:59;;;;;;;12.23;5.60;;;;;;;;;;6238154;28;20372;-68
2022/03/24 12:26:08;;;;;;;12.93;5.22;;;;;;;;;;6240786;28;20060;-68
2022/03/24 12:29:11;;;;;;;9.55;4.15;;;;;;;;;;6239182;28;20014;-68
2022/03/24 12:32:11;;;;;;;9.77;4.32;;;;;;;;;;6233226;28;20112;-68
2022/03/24 12:35:30;;;;;;;10.53;4.37;;;;;;;;;;6233253;28;20607;-68
2022/03/24 12:38:33;;;;;;;6.72;3.25;;;;;;;;;;6234148;28;20025;-68
2022/03/24 12:41:33;;;;;;;9.77;3.75;;;;;;;;;;6232914;28;20056;-68
2022/03/24 12:44:48;;;;;;;6.47;3.30;;;;;;;;;;6238117;28;20029;-68
2022/03/24 12:47:49;;;;;;;7.78;3.55;;;;;;;;;;6239837;28;20025;-68
2022/03/24 12:50:51;;;;;;;14.00;4.07;;;;;;;;;;6239855;28;20103;-68
2022/03/24 12:53:52;;;;;;;8.50;3.58;;;;;;;;;;6232920;28;20025;-68
2022/03/24 12:57:13;;;;;;;6.63;3.65;;;;;;;;;;6238821;28;20045;-68
2022/03/24 13:00:17;;;;;;;10.20;4.10;;;;;;;;;;6233491;28;20061;-68
2022/03/24 13:03:18;;;;;;;5.80;2.70;;;;;;;;;;6237243;28;20028;-68
2022/03/24 13:06:18;;;;;;;11.10;3.40;;;;;;;;;;6233944;28;20041;-68
2022/03/24 13:09:19;;;;;;;8.23;3.50;;;;;;;;;;6236832;28;20108;-68
2022/03/24 13:12:27;;;;;;;6.37;3.93;;;;;;;;;;6229518;28;20018;-68
2022/03/24 13:15:37;;;;;;;8.10;3.72;;;;;;;;;;6226092;28;20321;-68
2022/03/24 13:18:37;;;;;;;8.13;3.80;;;;;;;;;;6228794;28;20026;-68
2022/03/24 13:21:38;;;;;;;13.37;4.63;;;;;;;;;;6228768;28;20028;-68
2022/03/24 13:24:38;;;;;;;7.87;3.53;;;;;;;;;;6226089;28;20064;-68
2022/03/24 13:27:44;;;;;;;8.47;4.53;;;;;;;;;;6225547;28;20026;-68
2022/03/24 13:30:44;;;;;;;12.23;5.32;;;;;;;;;;6230208;28;20370;-68
2022/03/24 13:33:51;;;;;;;11.23;4.90;;;;;;;;;;6224358;28;20041;-68
2022/03/24 13:36:51;;;;;;;9.60;4.00;;;;;;;;;;6226063;28;20112;-68
2022/03/24 13:39:55;;;;;;;6.77;3.63;;;;;;;;;;6224781;28;20371;-68
2022/03/24 13:42:56;;;;;;;8.30;3.55;;;;;;;;;;6226089;28;20354;-68
2022/03/24 13:45:56;;;;;;;5.83;3.07;;;;;;;;;;6231122;28;20075;-68
2022/03/24 13:48:57;;;;;;;7.57;4.10;;;;;;;;;;6231536;28;20354;-68
2022/03/24 13:51:58;;;;;;;9.50;3.63;;;;;;;;;;6229524;28;20080;-68
2022/03/24 13:55:27;;;;;;;6.90;3.17;;;;;;;;;;6222631;28;20057;-68
2022/03/24 13:58:28;;;;;;;7.93;3.65;;;;;;;;;;6216577;28;20068;-68
2022/03/24 14:01:28;;;;;;;6.97;2.87;;;;;;;;;;6230386;28;20026;-68
2022/03/24 14:04:28;;;;;;;5.87;2.53;;;;;;;;;;6224950;28;20504;-68
2022/03/24 14:07:28;;;;;;;9.17;3.40;;;;;;;;;;6236549;28;20408;-68
2022/03/24 14:10:46;;;;;;;12.70;2.67;;;;;;;;;;6234924;28;20541;-68
2022/03/24 14:13:47;;;;;;;4.35;2.20;;;;;;;;;;6230258;28;20113;-68
2022/03/24 14:16:48;;;;;;;5.95;3.28;;;;;;;;;;6245476;28;20052;-68
2022/03/24 14:19:55;;;;;;;8.70;2.95;;;;;;;;;;6228623;28;20055;-68
2022/03/24 14:22:55;;;;;;;10.02;3.03;;;;;;;;;;6245693;28;20036;-68
2022/03/24 14:26:00;;;;;;;8.40;2.53;;;;;;;;;;6237863;28;20021;-68
2022/03/24 14:29:14;;;;;;;8.77;2.85;;;;;;;;;;6232832;28;20029;-68
2022/03/24 14:32:17;;;;;;;5.63;2.50;;;;;;;;;;6229098;28;20208;-68
2022/03/24 14:35:17;;;;;;;6.03;2.63;;;;;;;;;;6231079;28;20104;-68
2022/03/24 14:38:17;;;;;;;7.78;3.53;;;;;;;;;;6219625;28;20029;-68
2022/03/24 14:41:17;;;;;;;7.03;2.63;;;;;;;;;;6236626;28;20505;-68
2022/03/24 14:44:19;;;;;;;6.50;3.10;;;;;;;;;;6234986;28;20366;-68
2022/03/24 14:47:19;;;;;;;6.25;3.67;;;;;;;;;;6241515;28;20445;-68
2022/03/24 14:50:20;;;;;;;6.77;2.57;;;;;;;;;;6244127;28;20506;-68
2022/03/24 14:53:20;;;;;;;5.73;2.40;;;;;;;;;;6243240;28;20073;-68
2022/03/24 14:56:21;;;;;;;4.97;2.88;;;;;;;;;;6227789;28;20600;-68
2022/03/24 14:59:21;;;;;;;7.03;2.40;;;;;;;;;;6234341;28;20593;-68
2022/03/24 15:02:21;;;;;;;6.03;3.20;;;;;;;;;;6232898;28;20035;-68
2022/03/24 15:05:22;;;;;;;5.50;2.47;;;;;;;;;;6229653;28;20010;-68
2022/03/24 15:08:22;;;;;;;11.33;3.13;;;;;;;;;;6227662;28;20017;-68
2022/03/24 15:11:22;;;;;;;11.20;3.97;;;;;;;;;;6231228;28;20076;-68
2022/03/24 15:17:41;;;;;;;8.20;3.20;;;;;;;;;;6235681;28;20037;-68
2022/03/24 15:20:41;;;;;;;7.90;2.97;;;;;;;;;;6238166;28;20071;-68
2022/03/24 15:23:42;;;;;;;11.40;4.17;;;;;;;;;;6234595;28;20030;-68
2022/03/24 15:26:42;;;;;;;7.13;4.07;;;;;;;;;;6230606;28;20033;-68
2022/03/24 15:29:42;;;;;;;11.97;5.00;;;;;;;;;;6234546;28;20029;-68
2022/03/24 15:32:42;;;;;;;7.90;4.17;;;;;;;;;;6232680;28;20063;-68
2022/03/24 15:35:43;;;;;;;18.10;5.30;;;;;;;;;;6235496;28;20125;-68
2022/03/24 15:38:44;;;;;;;10.55;4.60;;;;;;;;;;6241130;28;20103;-68
2022/03/24 15:41:45;;;;;;;9.60;4.67;;;;;;;;;;6241860;28;20477;-68
2022/03/24 15:44:46;;;;;;;11.50;4.60;;;;;;;;;;6236252;28;20330;-66
2022/03/24 15:47:47;;;;;;;9.40;4.28;;;;;;;;;;6212901;28;20018;-66
2022/03/24 15:50:48;;;;;;;8.35;3.53;;;;;;;;;;6232591;28;20385;-66
2022/03/24 15:53:48;;;;;;;9.60;3.57;;;;;;;;;;6228794;28;20050;-66
2022/03/24 15:56:48;;;;;;;8.70;3.67;;;;;;;;;;6233608;28;20053;-66
2022/03/24 15:59:48;;;;;;;16.33;4.00;;;;;;;;;;6238008;28;20026;-66
2022/03/24 16:02:49;;;;;;;10.43;3.73;;;;;;;;;;6238661;28;20457;-66
2022/03/24 16:05:49;;;;;;;7.30;3.80;;;;;;;;;;6226329;28;20013;-66
2022/03/24 16:08:50;;;;;;;8.87;3.80;;;;;;;;;;6241110;28;20049;-66
2022/03/24 16:11:51;;;;;;;10.07;4.47;;;;;;;;;;6243824;28;20021;-67
2022/03/24 16:14:52;;;;;;;10.95;6.47;;;;;;;;;;6237641;28;20017;-67
2022/03/24 16:17:52;;;;;;;9.80;6.10;;;;;;;;;;6230872;28;20032;-66
2022/03/24 16:20:52;;;;;;;10.90;5.63;;;;;;;;;;6217873;28;20080;-66
2022/03/24 16:23:53;;;;;;;10.33;4.63;;;;;;;;;;6219862;28;20377;-66
2022/03/24 16:26:53;;;;;;;9.80;4.30;;;;;;;;;;6222146;28;20024;-66
2022/03/24 16:29:53;;;;;;;10.10;4.27;;;;;;;;;;6218927;28;20438;-66
2022/03/24 16:32:54;;;;;;;10.67;4.57;;;;;;;;;;6223121;28;20041;-66
2022/03/24 16:35:54;;;;;;;16.63;5.97;;;;;;;;;;6221632;28;20053;-66
2022/03/24 16:38:55;;;;;;;11.40;6.23;;;;;;;;;;6225883;28;20393;-66
2022/03/24 16:41:55;;;;;;;12.23;6.20;;;;;;;;;;6225304;28;20092;-67
2022/03/24 16:44:56;;;;;;;13.88;5.65;;;;;;;;;;6217062;28;20034;-67
2022/03/24 16:47:56;;;;;;;13.23;6.03;;;;;;;;;;6217653;28;20492;-67
2022/03/24 16:50:56;;;;;;;12.90;6.10;;;;;;;;;;6218285;28;20018;-67
2022/03/24 16:53:56;;;;;;;16.98;6.30;;;;;;;;;;6217390;28;20481;-66
2022/03/24 16:56:56;;;;;;;12.70;5.82;;;;;;;;;;6237098;28;20089;-67
2022/03/24 16:59:57;;;;;;;14.02;5.63;;;;;;;;;;6219375;28;20477;-67
2022/03/24 17:02:58;;;;;;;15.40;6.13;;;;;;;;;;6234721;28;20470;-66
2022/03/24 17:05:58;;;;;;;16.40;6.22;;;;;;;;;;6217043;28;20030;-66
2022/03/24 17:08:58;;;;;;;16.05;7.35;;;;;;;;;;6228701;28;20014;-66
2022/03/24 17:11:58;;;;;;;23.13;8.50;;;;;;;;;;6218139;28;20030;-66
2022/03/24 17:15:02;;;;;;;18.27;6.38;;;;;;;;;;6217323;28;20470;-66
2022/03/24 17:18:03;;;;;;;20.58;7.97;;;;;;;;;;6218643;28;20038;-66
2022/03/24 17:21:04;;;;;;;18.00;8.40;;;;;;;;;;6218111;28;20037;-67
2022/03/24 17:24:05;;;;;;;26.27;9.27;;;;;;;;;;6220939;28;20068;-66
2022/03/24 17:27:06;;;;;;;30.52;11.65;;;;;;;;;;6225388;28;20054;-66
2022/03/24 17:30:12;;;;;;;22.02;9.45;;;;;;;;;;6227511;28;20058;-66
2022/03/24 17:33:13;;;;;;;23.25;9.75;;;;;;;;;;6241725;28;20040;-66
2022/03/24 17:36:13;;;;;;;24.20;9.93;;;;;;;;;;6229440;28;20472;-66
2022/03/24 17:39:13;;;;;;;28.33;12.00;;;;;;;;;;6217410;28;20014;-66
2022/03/24 17:42:14;;;;;;;20.67;10.13;;;;;;;;;;6224691;28;20454;-66
2022/03/24 17:45:14;;;;;;;29.60;10.77;;;;;;;;;;6217346;28;20651;-66